sensor_id;sensor_type;location;lat;lon;timestamp;P1;durP1;ratioP1;P2;durP2;ratioP2
72517;SDS011;60540;51.178;6.738;2023-05-13T00:00:51;13.52;;;7.32;;
72517;SDS011;60540;51.178;6.738;2023-05-13T00:03:17;11.88;;;7.97;;
72517;SDS011;60540;51.178;6.738;2023-05-13T00:05:43;12.98;;;7.82;;
72517;SDS011;60540;51.178;6.738;2023-05-13T00:08:09;12.63;;;7.97;;
72517;SDS011;60540;51.178;6.738;2023-05-13T00:10:36;10.45;;;7.15;;
72517;SDS011;60540;51.178;6.738;2023-05-13T00:13:02;13.73;;;8.48;;
72517;SDS011;60540;51.178;6.738;2023-05-13T00:15:28;12.48;;;8.02;;
72517;SDS011;60540;51.178;6.738;2023-05-13T00:17:53;11.38;;;8.35;;
72517;SDS011;60540;51.178;6.738;2023-05-13T00:20:19;11.65;;;8.10;;
72517;SDS011;60540;51.178;6.738;2023-05-13T00:22:45;12.68;;;7.90;;
72517;SDS011;60540;51.178;6.738;2023-05-13T00:25:11;13.80;;;8.23;;
72517;SDS011;60540;51.178;6.738;2023-05-13T00:27:36;10.60;;;7.90;;
72517;SDS011;60540;51.178;6.738;2023-05-13T00:30:02;14.00;;;8.13;;
72517;SDS011;60540;51.178;6.738;2023-05-13T00:32:30;13.15;;;8.38;;
72517;SDS011;60540;51.178;6.738;2023-05-13T00:34:56;15.15;;;8.85;;
72517;SDS011;60540;51.178;6.738;2023-05-13T00:37:21;27.35;;;10.82;;
72517;SDS011;60540;51.178;6.738;2023-05-13T00:39:47;11.75;;;7.88;;
72517;SDS011;60540;51.178;6.738;2023-05-13T00:42:13;11.38;;;7.30;;
72517;SDS011;60540;51.178;6.738;2023-05-13T00:44:39;13.30;;;8.68;;
72517;SDS011;60540;51.178;6.738;2023-05-13T00:47:05;12.23;;;9.35;;
72517;SDS011;60540;51.178;6.738;2023-05-13T00:49:31;12.05;;;8.45;;
72517;SDS011;60540;51.178;6.738;2023-05-13T00:51:57;12.07;;;7.50;;
72517;SDS011;60540;51.178;6.738;2023-05-13T00:54:24;11.43;;;7.75;;
72517;SDS011;60540;51.178;6.738;2023-05-13T00:56:49;10.38;;;7.38;;
72517;SDS011;60540;51.178;6.738;2023-05-13T00:59:19;14.52;;;8.32;;
72517;SDS011;60540;51.178;6.738;2023-05-13T01:10:02;10.65;;;7.50;;
72517;SDS011;60540;51.178;6.738;2023-05-13T01:12:42;12.98;;;7.80;;
72517;SDS011;60540;51.178;6.738;2023-05-13T01:15:13;10.95;;;7.63;;
72517;SDS011;60540;51.178;6.738;2023-05-13T01:17:56;12.30;;;7.97;;
72517;SDS011;60540;51.178;6.738;2023-05-13T01:20:22;11.73;;;7.88;;
72517;SDS011;60540;51.178;6.738;2023-05-13T01:22:48;9.07;;;7.25;;
72517;SDS011;60540;51.178;6.738;2023-05-13T01:25:14;9.80;;;6.50;;
72517;SDS011;60540;51.178;6.738;2023-05-13T01:27:40;11.05;;;7.93;;
72517;SDS011;60540;51.178;6.738;2023-05-13T01:30:06;10.02;;;7.55;;
72517;SDS011;60540;51.178;6.738;2023-05-13T01:32:33;10.98;;;7.10;;
72517;SDS011;60540;51.178;6.738;2023-05-13T01:34:59;11.20;;;7.30;;
72517;SDS011;60540;51.178;6.738;2023-05-13T01:37:26;12.82;;;7.47;;
72517;SDS011;60540;51.178;6.738;2023-05-13T01:39:53;11.32;;;7.93;;
72517;SDS011;60540;51.178;6.738;2023-05-13T01:42:18;10.75;;;7.10;;
72517;SDS011;60540;51.178;6.738;2023-05-13T01:44:44;9.48;;;7.22;;
72517;SDS011;60540;51.178;6.738;2023-05-13T01:47:10;12.63;;;7.50;;
72517;SDS011;60540;51.178;6.738;2023-05-13T01:49:36;11.30;;;7.68;;
72517;SDS011;60540;51.178;6.738;2023-05-13T01:52:01;10.90;;;7.53;;
72517;SDS011;60540;51.178;6.738;2023-05-13T01:54:29;10.93;;;7.88;;
72517;SDS011;60540;51.178;6.738;2023-05-13T01:56:54;10.38;;;7.55;;
72517;SDS011;60540;51.178;6.738;2023-05-13T01:59:20;10.30;;;7.15;;
72517;SDS011;60540;51.178;6.738;2023-05-13T02:01:46;9.77;;;6.85;;
72517;SDS011;60540;51.178;6.738;2023-05-13T02:04:12;10.40;;;7.10;;
72517;SDS011;60540;51.178;6.738;2023-05-13T02:06:37;11.77;;;7.20;;
72517;SDS011;60540;51.178;6.738;2023-05-13T02:09:03;10.82;;;6.97;;
72517;SDS011;60540;51.178;6.738;2023-05-13T02:11:29;10.10;;;7.07;;
72517;SDS011;60540;51.178;6.738;2023-05-13T02:13:54;11.15;;;6.55;;
72517;SDS011;60540;51.178;6.738;2023-05-13T02:16:20;10.27;;;6.63;;
72517;SDS011;60540;51.178;6.738;2023-05-13T02:18:46;11.30;;;7.75;;
72517;SDS011;60540;51.178;6.738;2023-05-13T02:21:12;10.82;;;7.80;;
72517;SDS011;60540;51.178;6.738;2023-05-13T02:23:37;11.13;;;7.30;;
72517;SDS011;60540;51.178;6.738;2023-05-13T02:26:03;10.65;;;7.72;;
72517;SDS011;60540;51.178;6.738;2023-05-13T02:28:29;10.52;;;7.15;;
72517;SDS011;60540;51.178;6.738;2023-05-13T02:30:55;10.77;;;7.03;;
72517;SDS011;60540;51.178;6.738;2023-05-13T02:33:21;9.63;;;6.85;;
72517;SDS011;60540;51.178;6.738;2023-05-13T02:35:46;9.40;;;6.72;;
72517;SDS011;60540;51.178;6.738;2023-05-13T02:38:12;12.07;;;8.05;;
72517;SDS011;60540;51.178;6.738;2023-05-13T02:40:38;10.02;;;6.75;;
72517;SDS011;60540;51.178;6.738;2023-05-13T02:43:03;10.40;;;6.80;;
72517;SDS011;60540;51.178;6.738;2023-05-13T02:45:29;10.90;;;7.15;;
72517;SDS011;60540;51.178;6.738;2023-05-13T02:47:55;10.77;;;7.47;;
72517;SDS011;60540;51.178;6.738;2023-05-13T02:50:21;11.25;;;8.07;;
72517;SDS011;60540;51.178;6.738;2023-05-13T02:52:47;10.65;;;7.35;;
72517;SDS011;60540;51.178;6.738;2023-05-13T02:55:13;11.15;;;7.65;;
72517;SDS011;60540;51.178;6.738;2023-05-13T02:57:39;9.75;;;7.10;;
72517;SDS011;60540;51.178;6.738;2023-05-13T03:00:04;10.77;;;7.35;;
72517;SDS011;60540;51.178;6.738;2023-05-13T03:02:31;12.63;;;7.72;;
72517;SDS011;60540;51.178;6.738;2023-05-13T03:04:57;11.18;;;7.32;;
72517;SDS011;60540;51.178;6.738;2023-05-13T03:07:23;11.13;;;7.53;;
72517;SDS011;60540;51.178;6.738;2023-05-13T03:09:49;10.70;;;7.25;;
72517;SDS011;60540;51.178;6.738;2023-05-13T03:12:15;12.02;;;7.70;;
72517;SDS011;60540;51.178;6.738;2023-05-13T03:14:41;9.93;;;7.40;;
72517;SDS011;60540;51.178;6.738;2023-05-13T03:17:09;11.20;;;7.18;;
72517;SDS011;60540;51.178;6.738;2023-05-13T03:19:35;13.88;;;8.35;;
72517;SDS011;60540;51.178;6.738;2023-05-13T03:22:02;13.93;;;7.40;;
72517;SDS011;60540;51.178;6.738;2023-05-13T03:24:27;12.05;;;7.78;;
72517;SDS011;60540;51.178;6.738;2023-05-13T03:26:54;9.63;;;7.28;;
72517;SDS011;60540;51.178;6.738;2023-05-13T03:29:20;12.48;;;7.45;;
72517;SDS011;60540;51.178;6.738;2023-05-13T03:31:46;11.43;;;7.55;;
72517;SDS011;60540;51.178;6.738;2023-05-13T03:34:12;9.93;;;7.22;;
72517;SDS011;60540;51.178;6.738;2023-05-13T03:36:38;12.23;;;8.05;;
72517;SDS011;60540;51.178;6.738;2023-05-13T03:39:04;12.10;;;7.70;;
72517;SDS011;60540;51.178;6.738;2023-05-13T03:41:29;10.10;;;7.15;;
72517;SDS011;60540;51.178;6.738;2023-05-13T03:43:55;11.00;;;8.27;;
72517;SDS011;60540;51.178;6.738;2023-05-13T03:46:20;11.05;;;7.75;;
72517;SDS011;60540;51.178;6.738;2023-05-13T03:48:47;12.05;;;8.07;;
72517;SDS011;60540;51.178;6.738;2023-05-13T03:51:13;12.68;;;9.00;;
72517;SDS011;60540;51.178;6.738;2023-05-13T03:53:39;16.83;;;8.20;;
72517;SDS011;60540;51.178;6.738;2023-05-13T03:56:05;12.10;;;7.03;;
72517;SDS011;60540;51.178;6.738;2023-05-13T03:58:31;12.20;;;8.30;;
72517;SDS011;60540;51.178;6.738;2023-05-13T04:00:57;11.73;;;7.63;;
72517;SDS011;60540;51.178;6.738;2023-05-13T04:03:22;11.25;;;7.25;;
72517;SDS011;60540;51.178;6.738;2023-05-13T04:05:49;11.68;;;7.97;;
72517;SDS011;60540;51.178;6.738;2023-05-13T04:08:15;12.98;;;8.13;;
72517;SDS011;60540;51.178;6.738;2023-05-13T04:10:42;10.95;;;8.32;;
72517;SDS011;60540;51.178;6.738;2023-05-13T04:13:07;12.63;;;8.48;;
72517;SDS011;60540;51.178;6.738;2023-05-13T04:15:33;11.52;;;7.93;;
72517;SDS011;60540;51.178;6.738;2023-05-13T04:17:59;11.02;;;8.25;;
72517;SDS011;60540;51.178;6.738;2023-05-13T04:20:25;11.52;;;7.72;;
72517;SDS011;60540;51.178;6.738;2023-05-13T04:22:50;11.77;;;7.78;;
72517;SDS011;60540;51.178;6.738;2023-05-13T04:25:16;11.25;;;8.05;;
72517;SDS011;60540;51.178;6.738;2023-05-13T04:27:42;11.85;;;7.70;;
72517;SDS011;60540;51.178;6.738;2023-05-13T04:30:08;12.00;;;8.35;;
72517;SDS011;60540;51.178;6.738;2023-05-13T04:32:35;12.35;;;7.93;;
72517;SDS011;60540;51.178;6.738;2023-05-13T04:35:00;11.10;;;8.07;;
72517;SDS011;60540;51.178;6.738;2023-05-13T04:37:26;13.32;;;9.38;;
72517;SDS011;60540;51.178;6.738;2023-05-13T04:39:52;13.90;;;9.35;;
72517;SDS011;60540;51.178;6.738;2023-05-13T04:42:17;24.63;;;10.85;;
72517;SDS011;60540;51.178;6.738;2023-05-13T04:44:43;11.63;;;8.38;;
72517;SDS011;60540;51.178;6.738;2023-05-13T04:47:09;11.90;;;8.32;;
72517;SDS011;60540;51.178;6.738;2023-05-13T04:49:35;14.93;;;9.23;;
72517;SDS011;60540;51.178;6.738;2023-05-13T04:52:01;13.38;;;8.88;;
72517;SDS011;60540;51.178;6.738;2023-05-13T04:56:53;12.02;;;8.35;;
72517;SDS011;60540;51.178;6.738;2023-05-13T04:59:19;13.65;;;9.10;;
72517;SDS011;60540;51.178;6.738;2023-05-13T05:01:45;12.98;;;8.52;;
72517;SDS011;60540;51.178;6.738;2023-05-13T05:04:11;14.27;;;8.40;;
72517;SDS011;60540;51.178;6.738;2023-05-13T05:06:37;13.40;;;8.95;;
72517;SDS011;60540;51.178;6.738;2023-05-13T05:09:03;12.98;;;8.40;;
72517;SDS011;60540;51.178;6.738;2023-05-13T05:11:29;13.82;;;8.85;;
72517;SDS011;60540;51.178;6.738;2023-05-13T05:13:55;14.18;;;9.18;;
72517;SDS011;60540;51.178;6.738;2023-05-13T05:16:20;13.45;;;8.27;;
72517;SDS011;60540;51.178;6.738;2023-05-13T05:18:46;12.65;;;8.65;;
72517;SDS011;60540;51.178;6.738;2023-05-13T05:21:12;14.43;;;9.07;;
72517;SDS011;60540;51.178;6.738;2023-05-13T05:23:38;12.50;;;8.70;;
72517;SDS011;60540;51.178;6.738;2023-05-13T05:26:04;15.75;;;9.38;;
72517;SDS011;60540;51.178;6.738;2023-05-13T05:28:30;13.40;;;9.07;;
72517;SDS011;60540;51.178;6.738;2023-05-13T05:30:55;13.60;;;9.18;;
72517;SDS011;60540;51.178;6.738;2023-05-13T05:33:21;13.38;;;9.77;;
72517;SDS011;60540;51.178;6.738;2023-05-13T05:35:47;15.70;;;9.38;;
72517;SDS011;60540;51.178;6.738;2023-05-13T05:38:13;12.48;;;9.07;;
72517;SDS011;60540;51.178;6.738;2023-05-13T05:40:39;12.80;;;9.57;;
72517;SDS011;60540;51.178;6.738;2023-05-13T05:43:06;13.23;;;8.70;;
72517;SDS011;60540;51.178;6.738;2023-05-13T05:45:36;13.52;;;9.20;;
72517;SDS011;60540;51.178;6.738;2023-05-13T05:48:02;15.07;;;9.25;;
72517;SDS011;60540;51.178;6.738;2023-05-13T05:50:28;13.60;;;8.70;;
72517;SDS011;60540;51.178;6.738;2023-05-13T05:52:54;12.20;;;8.40;;
72517;SDS011;60540;51.178;6.738;2023-05-13T05:55:20;12.18;;;8.40;;
72517;SDS011;60540;51.178;6.738;2023-05-13T05:57:46;13.13;;;8.93;;
72517;SDS011;60540;51.178;6.738;2023-05-13T06:00:11;13.02;;;9.02;;
72517;SDS011;60540;51.178;6.738;2023-05-13T06:02:39;11.50;;;8.30;;
72517;SDS011;60540;51.178;6.738;2023-05-13T06:05:05;14.15;;;8.95;;
72517;SDS011;60540;51.178;6.738;2023-05-13T06:07:31;13.05;;;9.02;;
72517;SDS011;60540;51.178;6.738;2023-05-13T06:09:57;14.60;;;8.85;;
72517;SDS011;60540;51.178;6.738;2023-05-13T06:12:23;11.40;;;9.00;;
72517;SDS011;60540;51.178;6.738;2023-05-13T06:14:48;12.57;;;8.15;;
72517;SDS011;60540;51.178;6.738;2023-05-13T06:17:14;13.05;;;8.93;;
72517;SDS011;60540;51.178;6.738;2023-05-13T06:19:40;13.82;;;9.45;;
72517;SDS011;60540;51.178;6.738;2023-05-13T06:24:35;13.77;;;8.38;;
72517;SDS011;60540;51.178;6.738;2023-05-13T06:27:02;11.48;;;8.32;;
72517;SDS011;60540;51.178;6.738;2023-05-13T06:29:27;13.23;;;9.25;;
72517;SDS011;60540;51.178;6.738;2023-05-13T06:31:53;13.10;;;9.07;;
72517;SDS011;60540;51.178;6.738;2023-05-13T06:34:19;12.77;;;7.85;;
72517;SDS011;60540;51.178;6.738;2023-05-13T06:36:45;11.93;;;9.05;;
72517;SDS011;60540;51.178;6.738;2023-05-13T06:39:11;14.25;;;9.32;;
72517;SDS011;60540;51.178;6.738;2023-05-13T06:41:37;12.13;;;8.93;;
72517;SDS011;60540;51.178;6.738;2023-05-13T06:44:05;12.75;;;8.85;;
72517;SDS011;60540;51.178;6.738;2023-05-13T06:46:32;14.07;;;8.00;;
72517;SDS011;60540;51.178;6.738;2023-05-13T06:48:58;12.70;;;9.23;;
72517;SDS011;60540;51.178;6.738;2023-05-13T06:51:24;13.30;;;9.10;;
72517;SDS011;60540;51.178;6.738;2023-05-13T06:53:52;12.23;;;8.27;;
72517;SDS011;60540;51.178;6.738;2023-05-13T06:56:18;13.15;;;8.52;;
72517;SDS011;60540;51.178;6.738;2023-05-13T06:58:44;12.57;;;9.07;;
72517;SDS011;60540;51.178;6.738;2023-05-13T07:01:10;12.98;;;8.93;;
72517;SDS011;60540;51.178;6.738;2023-05-13T07:03:36;11.30;;;7.72;;
72517;SDS011;60540;51.178;6.738;2023-05-13T07:06:02;11.15;;;8.27;;
72517;SDS011;60540;51.178;6.738;2023-05-13T07:08:28;13.43;;;9.88;;
72517;SDS011;60540;51.178;6.738;2023-05-13T07:10:54;14.40;;;9.07;;
72517;SDS011;60540;51.178;6.738;2023-05-13T07:13:20;15.40;;;9.10;;
72517;SDS011;60540;51.178;6.738;2023-05-13T07:15:46;11.95;;;8.57;;
72517;SDS011;60540;51.178;6.738;2023-05-13T07:18:12;14.07;;;9.20;;
72517;SDS011;60540;51.178;6.738;2023-05-13T07:20:38;12.45;;;8.32;;
72517;SDS011;60540;51.178;6.738;2023-05-13T07:23:04;13.00;;;8.18;;
72517;SDS011;60540;51.178;6.738;2023-05-13T07:25:30;11.48;;;7.75;;
72517;SDS011;60540;51.178;6.738;2023-05-13T07:27:55;11.25;;;7.88;;
72517;SDS011;60540;51.178;6.738;2023-05-13T07:30:21;10.90;;;8.27;;
72517;SDS011;60540;51.178;6.738;2023-05-13T07:32:47;11.05;;;7.32;;
72517;SDS011;60540;51.178;6.738;2023-05-13T07:35:13;9.95;;;7.05;;
72517;SDS011;60540;51.178;6.738;2023-05-13T07:37:40;13.68;;;8.45;;
72517;SDS011;60540;51.178;6.738;2023-05-13T07:40:07;11.68;;;8.13;;
72517;SDS011;60540;51.178;6.738;2023-05-13T07:42:33;10.52;;;7.10;;
72517;SDS011;60540;51.178;6.738;2023-05-13T07:44:59;12.77;;;7.05;;
72517;SDS011;60540;51.178;6.738;2023-05-13T07:47:25;11.40;;;7.25;;
72517;SDS011;60540;51.178;6.738;2023-05-13T07:49:53;10.70;;;7.70;;
72517;SDS011;60540;51.178;6.738;2023-05-13T07:52:19;10.88;;;7.10;;
72517;SDS011;60540;51.178;6.738;2023-05-13T07:54:45;10.50;;;6.85;;
72517;SDS011;60540;51.178;6.738;2023-05-13T07:57:10;11.52;;;7.22;;
72517;SDS011;60540;51.178;6.738;2023-05-13T07:59:36;10.30;;;6.70;;
72517;SDS011;60540;51.178;6.738;2023-05-13T08:02:02;11.90;;;6.60;;
72517;SDS011;60540;51.178;6.738;2023-05-13T08:04:27;9.50;;;6.10;;
72517;SDS011;60540;51.178;6.738;2023-05-13T08:06:53;10.55;;;6.13;;
72517;SDS011;60540;51.178;6.738;2023-05-13T08:09:19;10.68;;;6.78;;
72517;SDS011;60540;51.178;6.738;2023-05-13T08:11:44;9.48;;;6.38;;
72517;SDS011;60540;51.178;6.738;2023-05-13T08:14:10;9.40;;;6.55;;
72517;SDS011;60540;51.178;6.738;2023-05-13T08:16:36;9.48;;;6.28;;
72517;SDS011;60540;51.178;6.738;2023-05-13T08:19:02;8.98;;;6.07;;
72517;SDS011;60540;51.178;6.738;2023-05-13T08:21:28;11.32;;;6.63;;
72517;SDS011;60540;51.178;6.738;2023-05-13T08:23:53;13.10;;;7.07;;
72517;SDS011;60540;51.178;6.738;2023-05-13T08:26:19;9.98;;;6.70;;
72517;SDS011;60540;51.178;6.738;2023-05-13T08:28:45;9.00;;;6.32;;
72517;SDS011;60540;51.178;6.738;2023-05-13T08:31:11;9.93;;;6.45;;
72517;SDS011;60540;51.178;6.738;2023-05-13T08:33:37;9.77;;;6.68;;
72517;SDS011;60540;51.178;6.738;2023-05-13T08:38:30;15.63;;;6.93;;
72517;SDS011;60540;51.178;6.738;2023-05-13T08:40:58;11.60;;;6.25;;
72517;SDS011;60540;51.178;6.738;2023-05-13T08:45:50;9.77;;;5.20;;
72517;SDS011;60540;51.178;6.738;2023-05-13T08:48:17;9.15;;;5.80;;
72517;SDS011;60540;51.178;6.738;2023-05-13T08:50:44;10.48;;;5.15;;
72517;SDS011;60540;51.178;6.738;2023-05-13T08:53:10;9.43;;;5.45;;
72517;SDS011;60540;51.178;6.738;2023-05-13T08:55:40;12.73;;;8.43;;
72517;SDS011;60540;51.178;6.738;2023-05-13T08:58:06;10.52;;;6.15;;
72517;SDS011;60540;51.178;6.738;2023-05-13T09:00:33;9.60;;;4.90;;
72517;SDS011;60540;51.178;6.738;2023-05-13T09:02:59;9.18;;;5.28;;
72517;SDS011;60540;51.178;6.738;2023-05-13T09:05:25;7.70;;;5.25;;
72517;SDS011;60540;51.178;6.738;2023-05-13T09:07:51;7.90;;;4.93;;
72517;SDS011;60540;51.178;6.738;2023-05-13T09:10:17;7.28;;;4.57;;
72517;SDS011;60540;51.178;6.738;2023-05-13T09:12:49;7.15;;;4.53;;
72517;SDS011;60540;51.178;6.738;2023-05-13T09:15:22;8.57;;;4.72;;
72517;SDS011;60540;51.178;6.738;2023-05-13T09:17:50;8.27;;;4.95;;
72517;SDS011;60540;51.178;6.738;2023-05-13T09:20:17;6.97;;;4.55;;
72517;SDS011;60540;51.178;6.738;2023-05-13T09:22:45;7.80;;;5.07;;
72517;SDS011;60540;51.178;6.738;2023-05-13T09:25:12;7.38;;;4.70;;
72517;SDS011;60540;51.178;6.738;2023-05-13T09:27:39;6.70;;;4.15;;
72517;SDS011;60540;51.178;6.738;2023-05-13T09:30:06;7.72;;;4.72;;
72517;SDS011;60540;51.178;6.738;2023-05-13T09:35:07;6.63;;;3.92;;
72517;SDS011;60540;51.178;6.738;2023-05-13T09:37:47;7.63;;;4.28;;
72517;SDS011;60540;51.178;6.738;2023-05-13T09:40:14;6.55;;;4.30;;
72517;SDS011;60540;51.178;6.738;2023-05-13T09:42:44;7.80;;;4.95;;
72517;SDS011;60540;51.178;6.738;2023-05-13T09:45:14;7.30;;;4.63;;
72517;SDS011;60540;51.178;6.738;2023-05-13T09:47:40;8.57;;;4.38;;
72517;SDS011;60540;51.178;6.738;2023-05-13T09:50:07;6.97;;;4.13;;
72517;SDS011;60540;51.178;6.738;2023-05-13T09:52:34;11.38;;;4.82;;
72517;SDS011;60540;51.178;6.738;2023-05-13T09:55:01;6.80;;;4.25;;
72517;SDS011;60540;51.178;6.738;2023-05-13T09:57:30;8.95;;;4.63;;
72517;SDS011;60540;51.178;6.738;2023-05-13T10:00:00;7.18;;;3.80;;
72517;SDS011;60540;51.178;6.738;2023-05-13T10:02:26;6.32;;;4.20;;
72517;SDS011;60540;51.178;6.738;2023-05-13T10:04:53;6.47;;;4.22;;
72517;SDS011;60540;51.178;6.738;2023-05-13T10:07:20;5.70;;;3.55;;
72517;SDS011;60540;51.178;6.738;2023-05-13T10:09:52;6.72;;;3.80;;
72517;SDS011;60540;51.178;6.738;2023-05-13T10:12:23;6.07;;;4.07;;
72517;SDS011;60540;51.178;6.738;2023-05-13T10:14:50;6.90;;;4.13;;
72517;SDS011;60540;51.178;6.738;2023-05-13T10:17:20;7.25;;;3.95;;
72517;SDS011;60540;51.178;6.738;2023-05-13T10:19:49;6.20;;;3.47;;
72517;SDS011;60540;51.178;6.738;2023-05-13T10:22:19;5.88;;;3.50;;
72517;SDS011;60540;51.178;6.738;2023-05-13T10:24:55;5.68;;;3.58;;
72517;SDS011;60540;51.178;6.738;2023-05-13T10:27:24;6.18;;;3.63;;
72517;SDS011;60540;51.178;6.738;2023-05-13T10:29:52;5.85;;;3.08;;
72517;SDS011;60540;51.178;6.738;2023-05-13T10:32:19;6.20;;;3.05;;
72517;SDS011;60540;51.178;6.738;2023-05-13T10:34:46;4.90;;;3.00;;
72517;SDS011;60540;51.178;6.738;2023-05-13T10:37:27;6.95;;;3.03;;
72517;SDS011;60540;51.178;6.738;2023-05-13T10:42:55;6.07;;;3.33;;
72517;SDS011;60540;51.178;6.738;2023-05-13T10:45:33;5.38;;;3.03;;
72517;SDS011;60540;51.178;6.738;2023-05-13T10:48:04;5.38;;;3.17;;
72517;SDS011;60540;51.178;6.738;2023-05-13T10:50:37;6.80;;;3.25;;
72517;SDS011;60540;51.178;6.738;2023-05-13T10:53:06;4.65;;;3.03;;
72517;SDS011;60540;51.178;6.738;2023-05-13T10:55:38;6.75;;;3.35;;
72517;SDS011;60540;51.178;6.738;2023-05-13T10:58:12;5.07;;;3.13;;
72517;SDS011;60540;51.178;6.738;2023-05-13T11:00:39;5.10;;;3.30;;
72517;SDS011;60540;51.178;6.738;2023-05-13T11:03:14;6.13;;;2.90;;
72517;SDS011;60540;51.178;6.738;2023-05-13T11:05:44;5.40;;;3.50;;
72517;SDS011;60540;51.178;6.738;2023-05-13T11:08:31;5.82;;;3.47;;
72517;SDS011;60540;51.178;6.738;2023-05-13T11:11:00;7.57;;;3.53;;
72517;SDS011;60540;51.178;6.738;2023-05-13T11:13:36;5.55;;;3.38;;
72517;SDS011;60540;51.178;6.738;2023-05-13T11:16:01;5.38;;;3.25;;
72517;SDS011;60540;51.178;6.738;2023-05-13T11:18:31;6.30;;;3.20;;
72517;SDS011;60540;51.178;6.738;2023-05-13T11:21:02;4.30;;;3.00;;
72517;SDS011;60540;51.178;6.738;2023-05-13T11:23:32;5.05;;;3.15;;
72517;SDS011;60540;51.178;6.738;2023-05-13T11:26:08;4.82;;;3.30;;
72517;SDS011;60540;51.178;6.738;2023-05-13T11:28:54;6.10;;;3.20;;
72517;SDS011;60540;51.178;6.738;2023-05-13T11:31:25;5.05;;;3.13;;
72517;SDS011;60540;51.178;6.738;2023-05-13T11:34:05;5.75;;;2.83;;
72517;SDS011;60540;51.178;6.738;2023-05-13T11:36:32;4.45;;;2.42;;
72517;SDS011;60540;51.178;6.738;2023-05-13T11:39:08;4.88;;;2.88;;
72517;SDS011;60540;51.178;6.738;2023-05-13T11:41:45;5.65;;;3.10;;
72517;SDS011;60540;51.178;6.738;2023-05-13T11:44:12;5.32;;;3.20;;
72517;SDS011;60540;51.178;6.738;2023-05-13T11:47:00;4.88;;;2.92;;
72517;SDS011;60540;51.178;6.738;2023-05-13T11:52:02;6.43;;;3.25;;
72517;SDS011;60540;51.178;6.738;2023-05-13T11:57:22;6.70;;;3.22;;
72517;SDS011;60540;51.178;6.738;2023-05-13T11:59:54;5.25;;;2.72;;
72517;SDS011;60540;51.178;6.738;2023-05-13T12:02:22;5.55;;;3.60;;
72517;SDS011;60540;51.178;6.738;2023-05-13T12:04:49;5.30;;;3.22;;
72517;SDS011;60540;51.178;6.738;2023-05-13T12:07:19;5.03;;;2.97;;
72517;SDS011;60540;51.178;6.738;2023-05-13T12:09:46;9.00;;;3.33;;
72517;SDS011;60540;51.178;6.738;2023-05-13T12:12:13;6.43;;;3.30;;
72517;SDS011;60540;51.178;6.738;2023-05-13T12:14:39;5.38;;;3.03;;
72517;SDS011;60540;51.178;6.738;2023-05-13T12:17:04;5.35;;;2.88;;
72517;SDS011;60540;51.178;6.738;2023-05-13T12:19:30;6.30;;;3.30;;
72517;SDS011;60540;51.178;6.738;2023-05-13T12:21:57;7.28;;;2.95;;
72517;SDS011;60540;51.178;6.738;2023-05-13T12:24:23;5.13;;;3.00;;
72517;SDS011;60540;51.178;6.738;2023-05-13T12:26:49;4.80;;;3.00;;
72517;SDS011;60540;51.178;6.738;2023-05-13T12:29:15;6.82;;;2.90;;
72517;SDS011;60540;51.178;6.738;2023-05-13T12:31:41;5.38;;;3.10;;
72517;SDS011;60540;51.178;6.738;2023-05-13T12:34:08;4.43;;;3.00;;
72517;SDS011;60540;51.178;6.738;2023-05-13T12:36:37;4.80;;;2.85;;
72517;SDS011;60540;51.178;6.738;2023-05-13T12:39:04;4.30;;;3.05;;
72517;SDS011;60540;51.178;6.738;2023-05-13T12:41:31;4.18;;;2.60;;
72517;SDS011;60540;51.178;6.738;2023-05-13T12:44:03;6.15;;;2.97;;
72517;SDS011;60540;51.178;6.738;2023-05-13T12:46:31;5.93;;;2.78;;
72517;SDS011;60540;51.178;6.738;2023-05-13T12:48:58;4.22;;;2.80;;
72517;SDS011;60540;51.178;6.738;2023-05-13T12:51:24;3.60;;;2.30;;
72517;SDS011;60540;51.178;6.738;2023-05-13T12:53:51;7.30;;;3.13;;
72517;SDS011;60540;51.178;6.738;2023-05-13T12:56:21;6.07;;;2.53;;
72517;SDS011;60540;51.178;6.738;2023-05-13T12:58:48;9.05;;;2.70;;
72517;SDS011;60540;51.178;6.738;2023-05-13T13:01:14;4.82;;;2.70;;
72517;SDS011;60540;51.178;6.738;2023-05-13T13:03:41;5.93;;;2.40;;
72517;SDS011;60540;51.178;6.738;2023-05-13T13:06:06;4.05;;;2.20;;
72517;SDS011;60540;51.178;6.738;2023-05-13T13:08:33;4.00;;;2.38;;
72517;SDS011;60540;51.178;6.738;2023-05-13T13:10:59;4.90;;;2.50;;
72517;SDS011;60540;51.178;6.738;2023-05-13T13:13:25;4.40;;;2.47;;
72517;SDS011;60540;51.178;6.738;2023-05-13T13:15:51;6.35;;;2.53;;
72517;SDS011;60540;51.178;6.738;2023-05-13T13:18:17;4.05;;;2.30;;
72517;SDS011;60540;51.178;6.738;2023-05-13T13:20:43;4.18;;;1.98;;
72517;SDS011;60540;51.178;6.738;2023-05-13T13:23:09;4.05;;;2.05;;
72517;SDS011;60540;51.178;6.738;2023-05-13T13:25:35;5.88;;;2.15;;
72517;SDS011;60540;51.178;6.738;2023-05-13T13:28:01;4.30;;;2.35;;
72517;SDS011;60540;51.178;6.738;2023-05-13T13:30:26;3.97;;;2.15;;
72517;SDS011;60540;51.178;6.738;2023-05-13T13:32:52;5.18;;;2.30;;
72517;SDS011;60540;51.178;6.738;2023-05-13T13:35:18;5.10;;;2.67;;
72517;SDS011;60540;51.178;6.738;2023-05-13T13:37:44;5.32;;;2.53;;
72517;SDS011;60540;51.178;6.738;2023-05-13T13:40:11;4.45;;;1.95;;
72517;SDS011;60540;51.178;6.738;2023-05-13T13:42:37;4.53;;;2.20;;
72517;SDS011;60540;51.178;6.738;2023-05-13T13:45:03;5.07;;;2.08;;
72517;SDS011;60540;51.178;6.738;2023-05-13T13:49:54;3.88;;;2.25;;
72517;SDS011;60540;51.178;6.738;2023-05-13T13:52:20;4.10;;;2.30;;
72517;SDS011;60540;51.178;6.738;2023-05-13T13:54:47;4.18;;;2.17;;
72517;SDS011;60540;51.178;6.738;2023-05-13T13:57:13;4.28;;;2.47;;
72517;SDS011;60540;51.178;6.738;2023-05-13T13:59:39;5.47;;;2.30;;
72517;SDS011;60540;51.178;6.738;2023-05-13T14:02:05;3.83;;;2.10;;
72517;SDS011;60540;51.178;6.738;2023-05-13T14:04:31;3.75;;;2.15;;
72517;SDS011;60540;51.178;6.738;2023-05-13T14:06:57;3.65;;;2.00;;
72517;SDS011;60540;51.178;6.738;2023-05-13T14:09:23;3.88;;;2.28;;
72517;SDS011;60540;51.178;6.738;2023-05-13T14:11:49;3.53;;;2.20;;
72517;SDS011;60540;51.178;6.738;2023-05-13T14:14:15;5.40;;;2.33;;
72517;SDS011;60540;51.178;6.738;2023-05-13T14:16:41;4.00;;;2.33;;
72517;SDS011;60540;51.178;6.738;2023-05-13T14:19:07;5.05;;;2.60;;
72517;SDS011;60540;51.178;6.738;2023-05-13T14:21:33;6.72;;;2.30;;
72517;SDS011;60540;51.178;6.738;2023-05-13T14:23:59;6.10;;;2.80;;
72517;SDS011;60540;51.178;6.738;2023-05-13T14:26:25;3.65;;;2.40;;
72517;SDS011;60540;51.178;6.738;2023-05-13T14:28:51;3.97;;;2.30;;
72517;SDS011;60540;51.178;6.738;2023-05-13T14:31:16;6.13;;;2.45;;
72517;SDS011;60540;51.178;6.738;2023-05-13T14:33:42;5.00;;;2.45;;
72517;SDS011;60540;51.178;6.738;2023-05-13T14:36:08;7.43;;;3.80;;
72517;SDS011;60540;51.178;6.738;2023-05-13T14:38:35;4.65;;;2.63;;
72517;SDS011;60540;51.178;6.738;2023-05-13T14:41:02;3.97;;;2.22;;
72517;SDS011;60540;51.178;6.738;2023-05-13T14:43:28;4.45;;;2.40;;
72517;SDS011;60540;51.178;6.738;2023-05-13T14:45:54;4.53;;;2.35;;
72517;SDS011;60540;51.178;6.738;2023-05-13T14:48:20;3.83;;;2.20;;
72517;SDS011;60540;51.178;6.738;2023-05-13T14:50:46;5.65;;;2.22;;
72517;SDS011;60540;51.178;6.738;2023-05-13T14:53:12;4.10;;;2.22;;
72517;SDS011;60540;51.178;6.738;2023-05-13T14:55:38;4.60;;;2.30;;
72517;SDS011;60540;51.178;6.738;2023-05-13T14:58:03;4.60;;;2.30;;
72517;SDS011;60540;51.178;6.738;2023-05-13T15:00:29;4.20;;;2.30;;
72517;SDS011;60540;51.178;6.738;2023-05-13T15:02:56;4.35;;;2.20;;
72517;SDS011;60540;51.178;6.738;2023-05-13T15:05:22;3.67;;;2.13;;
72517;SDS011;60540;51.178;6.738;2023-05-13T15:07:48;4.45;;;2.63;;
72517;SDS011;60540;51.178;6.738;2023-05-13T15:10:14;5.80;;;2.95;;